sensor_id;sensor_type;location;lat;lon;timestamp;temperature;humidity
20416;DHT22;10367;52.202;5.996;2023-04-25T00:01:47;6.20;99.90
20416;DHT22;10367;52.202;5.996;2023-04-25T00:04:18;6.10;99.90
20416;DHT22;10367;52.202;5.996;2023-04-25T00:06:49;6.10;99.90
20416;DHT22;10367;52.202;5.996;2023-04-25T00:09:21;6.10;99.90
20416;DHT22;10367;52.202;5.996;2023-04-25T00:11:50;6.00;99.90
20416;DHT22;10367;52.202;5.996;2023-04-25T00:14:19;6.00;99.90
20416;DHT22;10367;52.202;5.996;2023-04-25T00:16:50;6.00;99.90
20416;DHT22;10367;52.202;5.996;2023-04-25T00:19:26;6.00;99.90
20416;DHT22;10367;52.202;5.996;2023-04-25T00:21:56;5.80;99.90
20416;DHT22;10367;52.202;5.996;2023-04-25T00:24:26;5.90;99.90
20416;DHT22;10367;52.202;5.996;2023-04-25T00:26:58;5.80;99.90
20416;DHT22;10367;52.202;5.996;2023-04-25T00:29:29;5.70;99.90
20416;DHT22;10367;52.202;5.996;2023-04-25T00:32:01;5.70;99.90
20416;DHT22;10367;52.202;5.996;2023-04-25T00:34:30;5.70;99.90
20416;DHT22;10367;52.202;5.996;2023-04-25T00:37:00;5.60;99.90
20416;DHT22;10367;52.202;5.996;2023-04-25T00:39:35;5.60;99.90
20416;DHT22;10367;52.202;5.996;2023-04-25T00:42:04;5.50;99.90
20416;DHT22;10367;52.202;5.996;2023-04-25T00:44:34;5.50;99.90
20416;DHT22;10367;52.202;5.996;2023-04-25T00:47:07;5.50;99.90
20416;DHT22;10367;52.202;5.996;2023-04-25T00:49:35;5.40;99.90
20416;DHT22;10367;52.202;5.996;2023-04-25T00:52:07;5.40;99.90
20416;DHT22;10367;52.202;5.996;2023-04-25T00:54:37;5.40;99.90
20416;DHT22;10367;52.202;5.996;2023-04-25T00:57:08;5.40;99.90
20416;DHT22;10367;52.202;5.996;2023-04-25T00:59:38;5.40;99.90
20416;DHT22;10367;52.202;5.996;2023-04-25T01:02:06;5.30;99.90
20416;DHT22;10367;52.202;5.996;2023-04-25T01:04:36;5.30;99.90
20416;DHT22;10367;52.202;5.996;2023-04-25T01:07:05;5.30;99.90
20416;DHT22;10367;52.202;5.996;2023-04-25T01:09:34;5.40;99.90
20416;DHT22;10367;52.202;5.996;2023-04-25T01:12:06;5.40;99.90
20416;DHT22;10367;52.202;5.996;2023-04-25T01:14:35;5.50;99.90
20416;DHT22;10367;52.202;5.996;2023-04-25T01:17:04;5.60;99.90
20416;DHT22;10367;52.202;5.996;2023-04-25T01:19:35;5.50;99.90
20416;DHT22;10367;52.202;5.996;2023-04-25T01:22:05;5.50;99.90
20416;DHT22;10367;52.202;5.996;2023-04-25T01:24:37;5.40;99.90
20416;DHT22;10367;52.202;5.996;2023-04-25T01:27:07;5.30;99.90
20416;DHT22;10367;52.202;5.996;2023-04-25T01:29:36;5.20;99.90
20416;DHT22;10367;52.202;5.996;2023-04-25T01:32:13;5.10;99.90
20416;DHT22;10367;52.202;5.996;2023-04-25T01:34:42;5.00;99.90
20416;DHT22;10367;52.202;5.996;2023-04-25T01:37:12;4.90;99.90
20416;DHT22;10367;52.202;5.996;2023-04-25T01:39:42;4.80;99.90
20416;DHT22;10367;52.202;5.996;2023-04-25T01:42:11;4.90;99.90
20416;DHT22;10367;52.202;5.996;2023-04-25T01:44:41;4.90;99.90
20416;DHT22;10367;52.202;5.996;2023-04-25T01:47:09;5.00;99.90
20416;DHT22;10367;52.202;5.996;2023-04-25T01:49:38;5.10;99.90
20416;DHT22;10367;52.202;5.996;2023-04-25T01:52:07;5.20;99.90
20416;DHT22;10367;52.202;5.996;2023-04-25T01:54:37;5.20;99.90
20416;DHT22;10367;52.202;5.996;2023-04-25T01:57:06;5.20;99.90
20416;DHT22;10367;52.202;5.996;2023-04-25T01:59:37;5.20;99.90
20416;DHT22;10367;52.202;5.996;2023-04-25T02:02:08;5.20;99.90
20416;DHT22;10367;52.202;5.996;2023-04-25T02:04:37;5.20;99.90
20416;DHT22;10367;52.202;5.996;2023-04-25T02:07:06;5.20;99.90
20416;DHT22;10367;52.202;5.996;2023-04-25T02:09:36;5.10;99.90
20416;DHT22;10367;52.202;5.996;2023-04-25T02:12:07;5.00;99.90
20416;DHT22;10367;52.202;5.996;2023-04-25T02:14:36;4.90;99.90
20416;DHT22;10367;52.202;5.996;2023-04-25T02:17:04;4.80;99.90
20416;DHT22;10367;52.202;5.996;2023-04-25T02:19:36;4.80;99.90
20416;DHT22;10367;52.202;5.996;2023-04-25T02:22:05;4.80;99.90
20416;DHT22;10367;52.202;5.996;2023-04-25T02:24:33;4.70;99.90
20416;DHT22;10367;52.202;5.996;2023-04-25T02:27:03;4.60;99.90
20416;DHT22;10367;52.202;5.996;2023-04-25T02:29:36;4.70;99.90
20416;DHT22;10367;52.202;5.996;2023-04-25T02:32:07;4.50;99.90
20416;DHT22;10367;52.202;5.996;2023-04-25T02:34:39;4.50;99.90
20416;DHT22;10367;52.202;5.996;2023-04-25T02:37:07;4.40;99.90
20416;DHT22;10367;52.202;5.996;2023-04-25T02:39:37;4.40;99.90
20416;DHT22;10367;52.202;5.996;2023-04-25T02:42:10;4.30;99.90
20416;DHT22;10367;52.202;5.996;2023-04-25T02:44:38;4.30;99.90
20416;DHT22;10367;52.202;5.996;2023-04-25T02:47:07;4.20;99.90
20416;DHT22;10367;52.202;5.996;2023-04-25T02:49:36;4.20;99.90
20416;DHT22;10367;52.202;5.996;2023-04-25T02:52:05;4.30;99.90
20416;DHT22;10367;52.202;5.996;2023-04-25T02:54:33;4.30;99.90
20416;DHT22;10367;52.202;5.996;2023-04-25T02:57:02;4.20;99.90
20416;DHT22;10367;52.202;5.996;2023-04-25T02:59:32;4.20;99.90
20416;DHT22;10367;52.202;5.996;2023-04-25T03:02:01;4.10;99.90
20416;DHT22;10367;52.202;5.996;2023-04-25T03:04:35;4.10;99.90
20416;DHT22;10367;52.202;5.996;2023-04-25T03:07:08;4.10;99.90
20416;DHT22;10367;52.202;5.996;2023-04-25T03:09:45;4.10;99.90
20416;DHT22;10367;52.202;5.996;2023-04-25T03:12:14;4.20;99.90
20416;DHT22;10367;52.202;5.996;2023-04-25T03:14:54;4.20;99.90
20416;DHT22;10367;52.202;5.996;2023-04-25T03:17:22;4.20;99.90
20416;DHT22;10367;52.202;5.996;2023-04-25T03:19:53;4.30;99.90
20416;DHT22;10367;52.202;5.996;2023-04-25T03:22:22;4.30;99.90
20416;DHT22;10367;52.202;5.996;2023-04-25T03:24:51;4.40;99.90
20416;DHT22;10367;52.202;5.996;2023-04-25T03:27:26;4.50;99.90
20416;DHT22;10367;52.202;5.996;2023-04-25T03:29:58;4.40;99.90
20416;DHT22;10367;52.202;5.996;2023-04-25T03:32:38;4.50;99.90
20416;DHT22;10367;52.202;5.996;2023-04-25T03:35:09;4.50;99.90
20416;DHT22;10367;52.202;5.996;2023-04-25T03:37:38;4.40;99.90
20416;DHT22;10367;52.202;5.996;2023-04-25T03:40:11;4.50;99.90
20416;DHT22;10367;52.202;5.996;2023-04-25T03:42:40;4.50;99.90
20416;DHT22;10367;52.202;5.996;2023-04-25T03:45:18;4.60;99.90
20416;DHT22;10367;52.202;5.996;2023-04-25T03:47:47;4.60;99.90
20416;DHT22;10367;52.202;5.996;2023-04-25T03:50:16;4.60;99.90
20416;DHT22;10367;52.202;5.996;2023-04-25T03:52:48;4.60;99.90
20416;DHT22;10367;52.202;5.996;2023-04-25T03:55:17;4.50;99.90
20416;DHT22;10367;52.202;5.996;2023-04-25T03:57:51;4.60;99.90
20416;DHT22;10367;52.202;5.996;2023-04-25T04:00:21;4.60;99.90
20416;DHT22;10367;52.202;5.996;2023-04-25T04:02:56;4.60;99.90
20416;DHT22;10367;52.202;5.996;2023-04-25T04:05:25;4.60;99.90
20416;DHT22;10367;52.202;5.996;2023-04-25T04:07:54;4.60;99.90
20416;DHT22;10367;52.202;5.996;2023-04-25T04:10:23;4.70;99.90
20416;DHT22;10367;52.202;5.996;2023-04-25T04:12:55;4.80;99.90
20416;DHT22;10367;52.202;5.996;2023-04-25T04:15:25;4.80;99.90
20416;DHT22;10367;52.202;5.996;2023-04-25T04:17:59;4.90;99.90
20416;DHT22;10367;52.202;5.996;2023-04-25T04:20:32;5.00;99.90
20416;DHT22;10367;52.202;5.996;2023-04-25T04:23:01;4.90;99.90
20416;DHT22;10367;52.202;5.996;2023-04-25T04:25:30;4.90;99.90
20416;DHT22;10367;52.202;5.996;2023-04-25T04:27:59;4.90;99.90
20416;DHT22;10367;52.202;5.996;2023-04-25T04:30:30;4.90;99.90
20416;DHT22;10367;52.202;5.996;2023-04-25T04:33:03;4.90;99.90
20416;DHT22;10367;52.202;5.996;2023-04-25T04:35:34;4.90;99.90
20416;DHT22;10367;52.202;5.996;2023-04-25T04:38:05;4.90;99.90
20416;DHT22;10367;52.202;5.996;2023-04-25T04:40:38;5.00;99.90
20416;DHT22;10367;52.202;5.996;2023-04-25T04:43:09;5.00;99.90
20416;DHT22;10367;52.202;5.996;2023-04-25T04:45:41;5.00;99.90
20416;DHT22;10367;52.202;5.996;2023-04-25T04:48:16;5.10;99.90
20416;DHT22;10367;52.202;5.996;2023-04-25T04:50:49;5.20;99.90
20416;DHT22;10367;52.202;5.996;2023-04-25T04:53:18;5.10;99.90
20416;DHT22;10367;52.202;5.996;2023-04-25T04:55:50;4.90;99.90
20416;DHT22;10367;52.202;5.996;2023-04-25T04:58:19;4.80;99.90
20416;DHT22;10367;52.202;5.996;2023-04-25T05:00:50;4.70;99.90
20416;DHT22;10367;52.202;5.996;2023-04-25T05:03:19;4.70;99.90
20416;DHT22;10367;52.202;5.996;2023-04-25T05:05:49;4.70;99.90
20416;DHT22;10367;52.202;5.996;2023-04-25T05:08:22;4.60;99.90
20416;DHT22;10367;52.202;5.996;2023-04-25T05:10:52;4.60;99.90
20416;DHT22;10367;52.202;5.996;2023-04-25T05:13:23;4.60;99.90
20416;DHT22;10367;52.202;5.996;2023-04-25T05:15:53;4.40;99.90
20416;DHT22;10367;52.202;5.996;2023-04-25T05:18:22;4.40;99.90
20416;DHT22;10367;52.202;5.996;2023-04-25T05:20:51;4.30;99.90
20416;DHT22;10367;52.202;5.996;2023-04-25T05:23:20;4.20;99.90
20416;DHT22;10367;52.202;5.996;2023-04-25T05:25:51;4.30;99.90
20416;DHT22;10367;52.202;5.996;2023-04-25T05:28:19;4.40;99.90
20416;DHT22;10367;52.202;5.996;2023-04-25T05:30:48;4.50;99.90
20416;DHT22;10367;52.202;5.996;2023-04-25T05:33:21;4.50;99.90
20416;DHT22;10367;52.202;5.996;2023-04-25T05:35:59;4.60;99.90
20416;DHT22;10367;52.202;5.996;2023-04-25T05:38:29;4.60;99.90
20416;DHT22;10367;52.202;5.996;2023-04-25T05:41:03;4.60;99.90
20416;DHT22;10367;52.202;5.996;2023-04-25T05:43:32;4.70;99.90
20416;DHT22;10367;52.202;5.996;2023-04-25T05:46:04;4.70;99.90
20416;DHT22;10367;52.202;5.996;2023-04-25T05:48:34;4.80;99.90
20416;DHT22;10367;52.202;5.996;2023-04-25T05:51:03;4.90;99.90
20416;DHT22;10367;52.202;5.996;2023-04-25T05:53:32;5.00;99.90
20416;DHT22;10367;52.202;5.996;2023-04-25T05:56:01;5.00;99.90
20416;DHT22;10367;52.202;5.996;2023-04-25T05:58:30;5.00;99.90
20416;DHT22;10367;52.202;5.996;2023-04-25T06:01:01;5.10;99.90
20416;DHT22;10367;52.202;5.996;2023-04-25T06:03:38;5.20;99.90
20416;DHT22;10367;52.202;5.996;2023-04-25T06:06:11;5.20;99.90
20416;DHT22;10367;52.202;5.996;2023-04-25T06:08:43;5.30;99.90
20416;DHT22;10367;52.202;5.996;2023-04-25T06:11:20;5.40;99.90
20416;DHT22;10367;52.202;5.996;2023-04-25T06:13:52;5.50;99.90
20416;DHT22;10367;52.202;5.996;2023-04-25T06:16:21;5.50;99.90
20416;DHT22;10367;52.202;5.996;2023-04-25T06:18:55;5.40;99.90
20416;DHT22;10367;52.202;5.996;2023-04-25T06:21:26;5.40;99.90
20416;DHT22;10367;52.202;5.996;2023-04-25T06:24:08;5.40;99.90
20416;DHT22;10367;52.202;5.996;2023-04-25T06:26:40;5.40;99.90
20416;DHT22;10367;52.202;5.996;2023-04-25T06:29:08;5.40;99.90
20416;DHT22;10367;52.202;5.996;2023-04-25T06:31:37;5.50;99.90
20416;DHT22;10367;52.202;5.996;2023-04-25T06:34:08;5.60;99.90
20416;DHT22;10367;52.202;5.996;2023-04-25T06:36:39;5.60;99.90
20416;DHT22;10367;52.202;5.996;2023-04-25T06:39:08;5.80;99.90
20416;DHT22;10367;52.202;5.996;2023-04-25T06:41:39;5.90;99.90
20416;DHT22;10367;52.202;5.996;2023-04-25T06:44:08;6.00;99.90
20416;DHT22;10367;52.202;5.996;2023-04-25T06:46:38;6.10;99.90
20416;DHT22;10367;52.202;5.996;2023-04-25T06:49:09;6.20;99.90
20416;DHT22;10367;52.202;5.996;2023-04-25T06:51:37;6.20;99.90
20416;DHT22;10367;52.202;5.996;2023-04-25T06:54:07;6.30;99.90
20416;DHT22;10367;52.202;5.996;2023-04-25T06:56:41;6.20;99.90
20416;DHT22;10367;52.202;5.996;2023-04-25T06:59:11;6.20;99.90
20416;DHT22;10367;52.202;5.996;2023-04-25T07:01:44;6.20;99.90
20416;DHT22;10367;52.202;5.996;2023-04-25T07:04:14;6.30;99.90
20416;DHT22;10367;52.202;5.996;2023-04-25T07:06:44;6.30;99.90
20416;DHT22;10367;52.202;5.996;2023-04-25T07:09:14;6.30;99.90
20416;DHT22;10367;52.202;5.996;2023-04-25T07:11:43;6.40;99.90
20416;DHT22;10367;52.202;5.996;2023-04-25T07:14:12;6.40;99.90
20416;DHT22;10367;52.202;5.996;2023-04-25T07:16:43;6.50;99.90
20416;DHT22;10367;52.202;5.996;2023-04-25T07:19:13;6.50;99.90
20416;DHT22;10367;52.202;5.996;2023-04-25T07:21:42;6.50;99.90
20416;DHT22;10367;52.202;5.996;2023-04-25T07:24:17;6.60;99.90
20416;DHT22;10367;52.202;5.996;2023-04-25T07:26:47;6.70;99.90
20416;DHT22;10367;52.202;5.996;2023-04-25T07:29:16;6.70;99.90
20416;DHT22;10367;52.202;5.996;2023-04-25T07:31:47;6.70;99.90
20416;DHT22;10367;52.202;5.996;2023-04-25T07:34:17;6.80;99.90
20416;DHT22;10367;52.202;5.996;2023-04-25T07:36:51;7.00;99.90
20416;DHT22;10367;52.202;5.996;2023-04-25T07:39:25;7.20;99.90
20416;DHT22;10367;52.202;5.996;2023-04-25T07:41:54;7.40;99.90
20416;DHT22;10367;52.202;5.996;2023-04-25T07:44:23;7.80;99.90
20416;DHT22;10367;52.202;5.996;2023-04-25T07:46:54;8.00;99.90
20416;DHT22;10367;52.202;5.996;2023-04-25T07:49:25;8.20;99.90
20416;DHT22;10367;52.202;5.996;2023-04-25T07:51:56;8.40;99.90
20416;DHT22;10367;52.202;5.996;2023-04-25T07:54:31;8.40;99.90
20416;DHT22;10367;52.202;5.996;2023-04-25T07:56:59;8.10;99.90
20416;DHT22;10367;52.202;5.996;2023-04-25T07:59:29;7.90;99.90
20416;DHT22;10367;52.202;5.996;2023-04-25T08:02:01;7.60;99.90
20416;DHT22;10367;52.202;5.996;2023-04-25T08:04:31;6.60;99.90
20416;DHT22;10367;52.202;5.996;2023-04-25T08:07:00;5.30;99.90
20416;DHT22;10367;52.202;5.996;2023-04-25T08:09:28;4.50;99.90
20416;DHT22;10367;52.202;5.996;2023-04-25T08:12:07;4.30;99.90
20416;DHT22;10367;52.202;5.996;2023-04-25T08:14:36;4.40;99.90
20416;DHT22;10367;52.202;5.996;2023-04-25T08:17:09;4.80;99.90
20416;DHT22;10367;52.202;5.996;2023-04-25T08:19:45;5.20;99.90
20416;DHT22;10367;52.202;5.996;2023-04-25T08:22:25;5.40;99.90
20416;DHT22;10367;52.202;5.996;2023-04-25T08:24:54;5.60;99.90
20416;DHT22;10367;52.202;5.996;2023-04-25T08:27:24;5.80;99.90
20416;DHT22;10367;52.202;5.996;2023-04-25T08:29:53;5.80;99.90
20416;DHT22;10367;52.202;5.996;2023-04-25T08:32:22;5.80;99.90
20416;DHT22;10367;52.202;5.996;2023-04-25T08:35:00;5.90;99.90
20416;DHT22;10367;52.202;5.996;2023-04-25T08:37:38;6.00;99.90
20416;DHT22;10367;52.202;5.996;2023-04-25T08:40:14;6.20;99.90
20416;DHT22;10367;52.202;5.996;2023-04-25T08:42:43;6.40;99.90
20416;DHT22;10367;52.202;5.996;2023-04-25T08:45:13;6.80;99.90
20416;DHT22;10367;52.202;5.996;2023-04-25T08:47:45;7.20;99.90
20416;DHT22;10367;52.202;5.996;2023-04-25T08:50:18;7.30;99.90
20416;DHT22;10367;52.202;5.996;2023-04-25T08:52:51;7.60;99.90
20416;DHT22;10367;52.202;5.996;2023-04-25T08:55:22;7.80;99.90
20416;DHT22;10367;52.202;5.996;2023-04-25T08:57:59;7.90;99.90
20416;DHT22;10367;52.202;5.996;2023-04-25T09:00:29;8.10;99.90
20416;DHT22;10367;52.202;5.996;2023-04-25T09:02:58;8.20;99.90
20416;DHT22;10367;52.202;5.996;2023-04-25T09:05:30;8.30;99.90
20416;DHT22;10367;52.202;5.996;2023-04-25T09:07:58;8.40;99.90
20416;DHT22;10367;52.202;5.996;2023-04-25T09:10:28;8.60;99.90
20416;DHT22;10367;52.202;5.996;2023-04-25T09:13:05;8.80;99.90
20416;DHT22;10367;52.202;5.996;2023-04-25T09:15:47;8.90;99.90
20416;DHT22;10367;52.202;5.996;2023-04-25T09:18:23;8.70;99.90
20416;DHT22;10367;52.202;5.996;2023-04-25T09:21:05;8.30;99.90
20416;DHT22;10367;52.202;5.996;2023-04-25T09:23:43;7.80;99.90
20416;DHT22;10367;52.202;5.996;2023-04-25T09:26:14;7.50;99.90
20416;DHT22;10367;52.202;5.996;2023-04-25T09:28:44;7.40;99.90
20416;DHT22;10367;52.202;5.996;2023-04-25T09:31:21;7.30;99.90
20416;DHT22;10367;52.202;5.996;2023-04-25T09:33:58;7.20;99.90
20416;DHT22;10367;52.202;5.996;2023-04-25T09:36:30;7.40;99.90
20416;DHT22;10367;52.202;5.996;2023-04-25T09:38:59;7.60;99.90
20416;DHT22;10367;52.202;5.996;2023-04-25T09:41:30;7.80;99.90
20416;DHT22;10367;52.202;5.996;2023-04-25T09:43:59;8.00;99.90
20416;DHT22;10367;52.202;5.996;2023-04-25T09:46:33;8.30;99.90
20416;DHT22;10367;52.202;5.996;2023-04-25T09:49:06;8.60;99.90
20416;DHT22;10367;52.202;5.996;2023-04-25T09:51:37;8.80;99.90
20416;DHT22;10367;52.202;5.996;2023-04-25T09:54:06;8.80;99.90
20416;DHT22;10367;52.202;5.996;2023-04-25T09:56:36;8.90;99.90
20416;DHT22;10367;52.202;5.996;2023-04-25T09:59:05;8.90;99.90
20416;DHT22;10367;52.202;5.996;2023-04-25T10:01:36;9.10;99.90
20416;DHT22;10367;52.202;5.996;2023-04-25T10:04:10;9.20;99.90
20416;DHT22;10367;52.202;5.996;2023-04-25T10:06:43;9.60;99.90
20416;DHT22;10367;52.202;5.996;2023-04-25T10:09:12;10.10;99.90
20416;DHT22;10367;52.202;5.996;2023-04-25T10:11:42;10.00;99.90
20416;DHT22;10367;52.202;5.996;2023-04-25T10:14:13;9.70;99.90
20416;DHT22;10367;52.202;5.996;2023-04-25T10:16:42;9.20;99.90
20416;DHT22;10367;52.202;5.996;2023-04-25T10:19:11;8.50;99.90
20416;DHT22;10367;52.202;5.996;2023-04-25T10:21:52;7.70;99.90
20416;DHT22;10367;52.202;5.996;2023-04-25T10:24:21;7.00;99.90
20416;DHT22;10367;52.202;5.996;2023-04-25T10:26:50;6.90;99.90
20416;DHT22;10367;52.202;5.996;2023-04-25T10:29:23;6.90;99.90
20416;DHT22;10367;52.202;5.996;2023-04-25T10:31:52;7.00;99.90
20416;DHT22;10367;52.202;5.996;2023-04-25T10:34:25;7.20;99.90
20416;DHT22;10367;52.202;5.996;2023-04-25T10:37:10;7.40;99.90
20416;DHT22;10367;52.202;5.996;2023-04-25T10:39:40;7.70;99.90
20416;DHT22;10367;52.202;5.996;2023-04-25T10:42:09;8.00;99.90
20416;DHT22;10367;52.202;5.996;2023-04-25T10:44:38;8.00;99.90
20416;DHT22;10367;52.202;5.996;2023-04-25T10:47:07;8.10;99.90
20416;DHT22;10367;52.202;5.996;2023-04-25T10:49:41;8.20;99.90
20416;DHT22;10367;52.202;5.996;2023-04-25T10:52:19;8.00;99.90
20416;DHT22;10367;52.202;5.996;2023-04-25T10:54:53;8.10;99.90
20416;DHT22;10367;52.202;5.996;2023-04-25T10:57:36;8.60;99.90
20416;DHT22;10367;52.202;5.996;2023-04-25T11:00:07;9.40;99.90
20416;DHT22;10367;52.202;5.996;2023-04-25T11:02:41;10.00;99.90
20416;DHT22;10367;52.202;5.996;2023-04-25T11:05:23;10.50;99.90
20416;DHT22;10367;52.202;5.996;2023-04-25T11:07:58;10.90;99.90
20416;DHT22;10367;52.202;5.996;2023-04-25T11:10:34;11.00;99.90
20416;DHT22;10367;52.202;5.996;2023-04-25T11:13:04;10.50;99.90
20416;DHT22;10367;52.202;5.996;2023-04-25T11:15:33;10.10;99.90
20416;DHT22;10367;52.202;5.996;2023-04-25T11:18:02;9.80;99.90
20416;DHT22;10367;52.202;5.996;2023-04-25T11:20:31;9.60;99.90
20416;DHT22;10367;52.202;5.996;2023-04-25T11:23:01;9.40;99.90
20416;DHT22;10367;52.202;5.996;2023-04-25T11:25:35;9.30;99.90
20416;DHT22;10367;52.202;5.996;2023-04-25T11:28:05;9.70;99.90
20416;DHT22;10367;52.202;5.996;2023-04-25T11:30:34;9.90;99.90
20416;DHT22;10367;52.202;5.996;2023-04-25T11:33:03;10.30;99.90
20416;DHT22;10367;52.202;5.996;2023-04-25T11:35:32;10.80;99.90
20416;DHT22;10367;52.202;5.996;2023-04-25T11:38:03;11.20;99.90
20416;DHT22;10367;52.202;5.996;2023-04-25T11:40:33;11.20;99.90
20416;DHT22;10367;52.202;5.996;2023-04-25T11:43:02;11.10;99.90
20416;DHT22;10367;52.202;5.996;2023-04-25T11:45:31;11.30;99.90
20416;DHT22;10367;52.202;5.996;2023-04-25T11:48:01;11.30;99.90
20416;DHT22;10367;52.202;5.996;2023-04-25T11:50:31;11.00;99.90
20416;DHT22;10367;52.202;5.996;2023-04-25T11:52:59;10.50;99.90
20416;DHT22;10367;52.202;5.996;2023-04-25T11:55:30;10.30;99.90
20416;DHT22;10367;52.202;5.996;2023-04-25T11:58:00;10.60;99.90
20416;DHT22;10367;52.202;5.996;2023-04-25T12:00:30;11.00;99.90
20416;DHT22;10367;52.202;5.996;2023-04-25T12:03:01;11.10;99.90
20416;DHT22;10367;52.202;5.996;2023-04-25T12:05:31;10.60;99.90
20416;DHT22;10367;52.202;5.996;2023-04-25T12:08:11;9.70;99.90
20416;DHT22;10367;52.202;5.996;2023-04-25T12:10:46;9.30;99.90
20416;DHT22;10367;52.202;5.996;2023-04-25T12:13:20;9.10;99.90
20416;DHT22;10367;52.202;5.996;2023-04-25T12:15:49;9.50;99.90
20416;DHT22;10367;52.202;5.996;2023-04-25T12:18:23;10.00;99.90
20416;DHT22;10367;52.202;5.996;2023-04-25T12:20:53;10.40;99.90
20416;DHT22;10367;52.202;5.996;2023-04-25T12:23:26;10.40;99.90
20416;DHT22;10367;52.202;5.996;2023-04-25T12:25:57;10.50;99.90
20416;DHT22;10367;52.202;5.996;2023-04-25T12:28:26;10.80;99.90
20416;DHT22;10367;52.202;5.996;2023-04-25T12:30:58;11.30;99.90
20416;DHT22;10367;52.202;5.996;2023-04-25T12:33:28;11.40;99.90
20416;DHT22;10367;52.202;5.996;2023-04-25T12:35:58;11.50;99.90
20416;DHT22;10367;52.202;5.996;2023-04-25T12:38:28;11.50;99.90
20416;DHT22;10367;52.202;5.996;2023-04-25T12:40:58;11.30;99.90
20416;DHT22;10367;52.202;5.996;2023-04-25T12:43:27;11.10;99.90
20416;DHT22;10367;52.202;5.996;2023-04-25T12:45:56;11.00;99.90
20416;DHT22;10367;52.202;5.996;2023-04-25T12:48:25;10.90;99.90
20416;DHT22;10367;52.202;5.996;2023-04-25T12:50:54;10.80;99.90
20416;DHT22;10367;52.202;5.996;2023-04-25T12:53:23;10.70;99.90
20416;DHT22;10367;52.202;5.996;2023-04-25T12:55:52;10.70;99.90
20416;DHT22;10367;52.202;5.996;2023-04-25T12:58:26;10.80;99.90
20416;DHT22;10367;52.202;5.996;2023-04-25T13:00:55;11.00;99.90
20416;DHT22;10367;52.202;5.996;2023-04-25T13:03:23;11.00;99.90
20416;DHT22;10367;52.202;5.996;2023-04-25T13:05:53;10.90;99.90
20416;DHT22;10367;52.202;5.996;2023-04-25T13:08:21;10.60;99.90
20416;DHT22;10367;52.202;5.996;2023-04-25T13:10:53;10.50;99.90
20416;DHT22;10367;52.202;5.996;2023-04-25T13:13:23;10.40;99.90
20416;DHT22;10367;52.202;5.996;2023-04-25T13:15:54;10.40;99.90
20416;DHT22;10367;52.202;5.996;2023-04-25T13:18:23;10.90;99.90
20416;DHT22;10367;52.202;5.996;2023-04-25T13:20:58;11.30;99.90
20416;DHT22;10367;52.202;5.996;2023-04-25T13:23:28;11.30;99.90
20416;DHT22;10367;52.202;5.996;2023-04-25T13:26:00;11.00;99.90
20416;DHT22;10367;52.202;5.996;2023-04-25T13:28:31;10.60;99.90
20416;DHT22;10367;52.202;5.996;2023-04-25T13:30:59;10.50;99.90
20416;DHT22;10367;52.202;5.996;2023-04-25T13:33:28;10.40;99.90
20416;DHT22;10367;52.202;5.996;2023-04-25T13:36:00;10.90;99.90
20416;DHT22;10367;52.202;5.996;2023-04-25T13:38:30;11.10;99.90
20416;DHT22;10367;52.202;5.996;2023-04-25T13:40:58;11.30;99.90
20416;DHT22;10367;52.202;5.996;2023-04-25T13:43:28;11.10;99.90
20416;DHT22;10367;52.202;5.996;2023-04-25T13:45:58;10.80;99.90
20416;DHT22;10367;52.202;5.996;2023-04-25T13:48:27;10.90;99.90
20416;DHT22;10367;52.202;5.996;2023-04-25T13:50:55;10.90;99.90
20416;DHT22;10367;52.202;5.996;2023-04-25T13:53:27;11.10;99.90
20416;DHT22;10367;52.202;5.996;2023-04-25T13:55:57;11.20;99.90
20416;DHT22;10367;52.202;5.996;2023-04-25T13:58:26;11.50;99.90
20416;DHT22;10367;52.202;5.996;2023-04-25T14:00:55;11.50;99.90
20416;DHT22;10367;52.202;5.996;2023-04-25T14:03:30;11.80;99.90
20416;DHT22;10367;52.202;5.996;2023-04-25T14:05:59;12.10;99.90
20416;DHT22;10367;52.202;5.996;2023-04-25T14:08:30;11.80;99.90
20416;DHT22;10367;52.202;5.996;2023-04-25T14:10:58;11.40;99.90
20416;DHT22;10367;52.202;5.996;2023-04-25T14:13:27;11.00;99.90
20416;DHT22;10367;52.202;5.996;2023-04-25T14:15:56;10.80;99.90
20416;DHT22;10367;52.202;5.996;2023-04-25T14:18:27;10.80;99.90
20416;DHT22;10367;52.202;5.996;2023-04-25T14:20:55;11.30;99.90
20416;DHT22;10367;52.202;5.996;2023-04-25T14:23:24;11.80;99.90
20416;DHT22;10367;52.202;5.996;2023-04-25T14:25:53;11.60;99.90
20416;DHT22;10367;52.202;5.996;2023-04-25T14:28:22;11.40;99.90
20416;DHT22;10367;52.202;5.996;2023-04-25T14:30:51;10.80;99.90
20416;DHT22;10367;52.202;5.996;2023-04-25T14:33:21;10.20;99.90
20416;DHT22;10367;52.202;5.996;2023-04-25T14:35:52;9.80;99.90
20416;DHT22;10367;52.202;5.996;2023-04-25T14:38:21;9.50;99.90
20416;DHT22;10367;52.202;5.996;2023-04-25T14:40:52;9.20;99.90
20416;DHT22;10367;52.202;5.996;2023-04-25T14:43:22;9.20;99.90
20416;DHT22;10367;52.202;5.996;2023-04-25T14:45:50;9.20;99.90
20416;DHT22;10367;52.202;5.996;2023-04-25T14:48:21;9.50;99.90
20416;DHT22;10367;52.202;5.996;2023-04-25T14:50:51;9.90;99.90
20416;DHT22;10367;52.202;5.996;2023-04-25T14:53:20;10.40;99.90
20416;DHT22;10367;52.202;5.996;2023-04-25T14:55:49;10.90;99.90
20416;DHT22;10367;52.202;5.996;2023-04-25T14:58:18;11.30;99.90
20416;DHT22;10367;52.202;5.996;2023-04-25T15:00:47;11.10;99.90
20416;DHT22;10367;52.202;5.996;2023-04-25T15:03:16;10.90;99.90
20416;DHT22;10367;52.202;5.996;2023-04-25T15:05:45;10.50;99.90
20416;DHT22;10367;52.202;5.996;2023-04-25T15:08:15;10.10;99.90
20416;DHT22;10367;52.202;5.996;2023-04-25T15:10:44;9.90;99.90
20416;DHT22;10367;52.202;5.996;2023-04-25T15:13:14;10.10;99.90
20416;DHT22;10367;52.202;5.996;2023-04-25T15:15:43;10.40;99.90
20416;DHT22;10367;52.202;5.996;2023-04-25T15:18:20;10.70;99.90
20416;DHT22;10367;52.202;5.996;2023-04-25T15:20:53;11.10;99.90
20416;DHT22;10367;52.202;5.996;2023-04-25T15:23:23;11.40;99.90
20416;DHT22;10367;52.202;5.996;2023-04-25T15:25:56;11.70;99.90
20416;DHT22;10367;52.202;5.996;2023-04-25T15:28:24;11.80;99.90
20416;DHT22;10367;52.202;5.996;2023-04-25T15:30:53;11.90;99.90
20416;DHT22;10367;52.202;5.996;2023-04-25T15:33:22;11.90;99.90
20416;DHT22;10367;52.202;5.996;2023-04-25T15:35:51;11.50;99.90
20416;DHT22;10367;52.202;5.996;2023-04-25T15:38:20;11.00;99.90
20416;DHT22;10367;52.202;5.996;2023-04-25T15:40:53;10.60;99.90
20416;DHT22;10367;52.202;5.996;2023-04-25T15:43:22;10.60;99.90
20416;DHT22;10367;52.202;5.996;2023-04-25T15:45:50;10.70;99.90
20416;DHT22;10367;52.202;5.996;2023-04-25T15:48:19;10.80;99.90
20416;DHT22;10367;52.202;5.996;2023-04-25T15:50:48;11.00;99.90
20416;DHT22;10367;52.202;5.996;2023-04-25T15:53:17;11.30;99.90
20416;DHT22;10367;52.202;5.996;2023-04-25T15:55:46;11.40;99.90
20416;DHT22;10367;52.202;5.996;2023-04-25T15:58:18;11.50;99.90
20416;DHT22;10367;52.202;5.996;2023-04-25T16:00:49;11.60;99.90
20416;DHT22;10367;52.202;5.996;2023-04-25T16:03:18;11.80;99.90
20416;DHT22;10367;52.202;5.996;2023-04-25T16:05:48;11.60;99.90